sensor_id;sensor_type;location;lat;lon;timestamp;temperature;humidity
43949;DHT22;29429;51.074;13.764;2023-04-15T00:00:56;7.40;99.90
43949;DHT22;29429;51.074;13.764;2023-04-15T00:03:24;7.30;99.90
43949;DHT22;29429;51.074;13.764;2023-04-15T00:05:52;7.30;99.90
43949;DHT22;29429;51.074;13.764;2023-04-15T00:08:19;7.30;99.90
43949;DHT22;29429;51.074;13.764;2023-04-15T00:10:48;7.40;99.90
43949;DHT22;29429;51.074;13.764;2023-04-15T00:13:35;7.30;99.90
43949;DHT22;29429;51.074;13.764;2023-04-15T00:16:07;7.40;99.90
43949;DHT22;29429;51.074;13.764;2023-04-15T00:18:35;7.40;99.90
43949;DHT22;29429;51.074;13.764;2023-04-15T00:21:06;7.40;99.90
43949;DHT22;29429;51.074;13.764;2023-04-15T00:23:33;7.70;99.90
43949;DHT22;29429;51.074;13.764;2023-04-15T00:26:02;7.30;99.90
43949;DHT22;29429;51.074;13.764;2023-04-15T00:28:29;7.40;99.90
43949;DHT22;29429;51.074;13.764;2023-04-15T00:30:56;7.40;99.90
43949;DHT22;29429;51.074;13.764;2023-04-15T00:33:24;7.30;99.90
43949;DHT22;29429;51.074;13.764;2023-04-15T00:35:51;7.40;99.90
43949;DHT22;29429;51.074;13.764;2023-04-15T00:38:18;7.30;99.90
43949;DHT22;29429;51.074;13.764;2023-04-15T00:40:45;7.30;99.90
43949;DHT22;29429;51.074;13.764;2023-04-15T00:43:12;7.30;99.90
43949;DHT22;29429;51.074;13.764;2023-04-15T00:45:39;7.30;99.90
43949;DHT22;29429;51.074;13.764;2023-04-15T00:48:08;7.40;99.90
43949;DHT22;29429;51.074;13.764;2023-04-15T00:50:37;7.30;99.90
43949;DHT22;29429;51.074;13.764;2023-04-15T00:53:04;7.40;99.90
43949;DHT22;29429;51.074;13.764;2023-04-15T00:55:31;7.30;99.90
43949;DHT22;29429;51.074;13.764;2023-04-15T00:57:58;7.30;99.90
43949;DHT22;29429;51.074;13.764;2023-04-15T01:00:25;7.30;99.90
43949;DHT22;29429;51.074;13.764;2023-04-15T01:02:52;7.40;99.90
43949;DHT22;29429;51.074;13.764;2023-04-15T01:05:20;7.30;99.90
43949;DHT22;29429;51.074;13.764;2023-04-15T01:07:47;7.30;99.90
43949;DHT22;29429;51.074;13.764;2023-04-15T01:10:14;7.30;99.90
43949;DHT22;29429;51.074;13.764;2023-04-15T01:12:42;7.50;99.90
43949;DHT22;29429;51.074;13.764;2023-04-15T01:15:10;7.30;99.90
43949;DHT22;29429;51.074;13.764;2023-04-15T01:17:38;7.30;99.90
43949;DHT22;29429;51.074;13.764;2023-04-15T01:20:06;7.30;99.90
43949;DHT22;29429;51.074;13.764;2023-04-15T01:22:37;7.40;99.90
43949;DHT22;29429;51.074;13.764;2023-04-15T01:25:11;7.50;99.90
43949;DHT22;29429;51.074;13.764;2023-04-15T01:27:44;7.40;99.90
43949;DHT22;29429;51.074;13.764;2023-04-15T01:30:12;7.40;99.90
43949;DHT22;29429;51.074;13.764;2023-04-15T01:32:39;7.40;99.90
43949;DHT22;29429;51.074;13.764;2023-04-15T01:35:07;7.40;99.90
43949;DHT22;29429;51.074;13.764;2023-04-15T01:37:34;7.40;99.90
43949;DHT22;29429;51.074;13.764;2023-04-15T01:40:04;7.40;99.90
43949;DHT22;29429;51.074;13.764;2023-04-15T01:42:31;7.40;99.90
43949;DHT22;29429;51.074;13.764;2023-04-15T01:44:59;7.40;99.90
43949;DHT22;29429;51.074;13.764;2023-04-15T01:47:26;7.50;99.90
43949;DHT22;29429;51.074;13.764;2023-04-15T01:49:55;7.40;99.90
43949;DHT22;29429;51.074;13.764;2023-04-15T01:52:22;7.50;99.90
43949;DHT22;29429;51.074;13.764;2023-04-15T01:54:50;7.30;99.90
43949;DHT22;29429;51.074;13.764;2023-04-15T01:57:17;7.30;99.90
43949;DHT22;29429;51.074;13.764;2023-04-15T01:59:44;7.40;99.90
43949;DHT22;29429;51.074;13.764;2023-04-15T02:02:13;7.30;99.90
43949;DHT22;29429;51.074;13.764;2023-04-15T02:04:41;7.40;99.90
43949;DHT22;29429;51.074;13.764;2023-04-15T02:07:08;7.40;99.90
43949;DHT22;29429;51.074;13.764;2023-04-15T02:09:35;7.40;99.90
43949;DHT22;29429;51.074;13.764;2023-04-15T02:12:02;7.40;99.90
43949;DHT22;29429;51.074;13.764;2023-04-15T02:14:29;7.40;99.90
43949;DHT22;29429;51.074;13.764;2023-04-15T02:16:56;7.40;99.90
43949;DHT22;29429;51.074;13.764;2023-04-15T02:19:23;7.30;99.90
43949;DHT22;29429;51.074;13.764;2023-04-15T02:21:50;7.40;99.90
43949;DHT22;29429;51.074;13.764;2023-04-15T02:24:17;7.40;99.90
43949;DHT22;29429;51.074;13.764;2023-04-15T02:26:44;7.40;99.90
43949;DHT22;29429;51.074;13.764;2023-04-15T02:29:12;7.40;99.90
43949;DHT22;29429;51.074;13.764;2023-04-15T02:31:39;7.30;99.90
43949;DHT22;29429;51.074;13.764;2023-04-15T02:34:07;7.60;99.90
43949;DHT22;29429;51.074;13.764;2023-04-15T02:36:34;7.60;99.90
43949;DHT22;29429;51.074;13.764;2023-04-15T02:39:07;7.40;99.90
43949;DHT22;29429;51.074;13.764;2023-04-15T02:41:51;7.50;99.90
43949;DHT22;29429;51.074;13.764;2023-04-15T03:01:41;7.50;99.90
43949;DHT22;29429;51.074;13.764;2023-04-15T03:04:11;7.40;99.90
43949;DHT22;29429;51.074;13.764;2023-04-15T03:07:00;7.50;99.90
43949;DHT22;29429;51.074;13.764;2023-04-15T03:09:36;7.50;99.90
43949;DHT22;29429;51.074;13.764;2023-04-15T03:12:25;7.70;99.90
43949;DHT22;29429;51.074;13.764;2023-04-15T03:15:16;7.50;99.90
43949;DHT22;29429;51.074;13.764;2023-04-15T03:17:47;7.50;99.90
43949;DHT22;29429;51.074;13.764;2023-04-15T03:20:30;7.50;99.90
43949;DHT22;29429;51.074;13.764;2023-04-15T03:23:54;7.50;99.90
43949;DHT22;29429;51.074;13.764;2023-04-15T03:26:27;7.50;99.90
43949;DHT22;29429;51.074;13.764;2023-04-15T03:28:59;7.50;99.90
43949;DHT22;29429;51.074;13.764;2023-04-15T03:31:27;7.50;99.90
43949;DHT22;29429;51.074;13.764;2023-04-15T03:33:54;7.50;99.90
43949;DHT22;29429;51.074;13.764;2023-04-15T03:36:22;7.60;99.90
43949;DHT22;29429;51.074;13.764;2023-04-15T03:38:49;7.80;99.90
43949;DHT22;29429;51.074;13.764;2023-04-15T03:41:17;7.70;99.90
43949;DHT22;29429;51.074;13.764;2023-04-15T03:44:09;7.50;99.90
43949;DHT22;29429;51.074;13.764;2023-04-15T03:46:36;7.50;99.90
43949;DHT22;29429;51.074;13.764;2023-04-15T03:49:05;7.50;99.90
43949;DHT22;29429;51.074;13.764;2023-04-15T03:51:33;7.50;99.90
43949;DHT22;29429;51.074;13.764;2023-04-15T03:54:00;7.60;99.90
43949;DHT22;29429;51.074;13.764;2023-04-15T03:56:28;7.50;99.90
43949;DHT22;29429;51.074;13.764;2023-04-15T03:58:55;7.70;99.90
43949;DHT22;29429;51.074;13.764;2023-04-15T04:01:22;7.40;99.90
43949;DHT22;29429;51.074;13.764;2023-04-15T04:03:49;7.10;99.90
43949;DHT22;29429;51.074;13.764;2023-04-15T04:06:17;7.40;99.90
43949;DHT22;29429;51.074;13.764;2023-04-15T04:08:44;7.40;99.90
43949;DHT22;29429;51.074;13.764;2023-04-15T04:11:11;7.60;99.90
43949;DHT22;29429;51.074;13.764;2023-04-15T04:13:39;7.40;99.90
43949;DHT22;29429;51.074;13.764;2023-04-15T04:16:06;7.50;99.90
43949;DHT22;29429;51.074;13.764;2023-04-15T04:18:34;7.40;99.90
43949;DHT22;29429;51.074;13.764;2023-04-15T04:21:01;7.50;99.90
43949;DHT22;29429;51.074;13.764;2023-04-15T04:23:28;7.40;99.90
43949;DHT22;29429;51.074;13.764;2023-04-15T04:25:56;7.40;99.90
43949;DHT22;29429;51.074;13.764;2023-04-15T04:28:24;7.30;99.90
43949;DHT22;29429;51.074;13.764;2023-04-15T04:30:51;7.50;99.90
43949;DHT22;29429;51.074;13.764;2023-04-15T04:33:18;7.40;99.90
43949;DHT22;29429;51.074;13.764;2023-04-15T04:35:45;7.50;99.90
43949;DHT22;29429;51.074;13.764;2023-04-15T04:38:12;7.50;99.90
43949;DHT22;29429;51.074;13.764;2023-04-15T04:40:39;7.50;99.90
43949;DHT22;29429;51.074;13.764;2023-04-15T04:43:06;7.50;99.90
43949;DHT22;29429;51.074;13.764;2023-04-15T04:45:33;7.50;99.90
43949;DHT22;29429;51.074;13.764;2023-04-15T04:48:00;7.50;99.90
43949;DHT22;29429;51.074;13.764;2023-04-15T04:50:27;7.60;99.90
43949;DHT22;29429;51.074;13.764;2023-04-15T04:52:55;7.60;99.90
43949;DHT22;29429;51.074;13.764;2023-04-15T04:55:23;7.60;99.90
43949;DHT22;29429;51.074;13.764;2023-04-15T04:57:50;7.80;99.90
43949;DHT22;29429;51.074;13.764;2023-04-15T05:00:18;7.60;99.90
43949;DHT22;29429;51.074;13.764;2023-04-15T05:02:46;7.70;99.90
43949;DHT22;29429;51.074;13.764;2023-04-15T05:05:14;7.70;99.90
43949;DHT22;29429;51.074;13.764;2023-04-15T05:07:43;7.80;99.90
43949;DHT22;29429;51.074;13.764;2023-04-15T05:10:15;7.80;99.90
43949;DHT22;29429;51.074;13.764;2023-04-15T05:12:53;7.80;99.90
43949;DHT22;29429;51.074;13.764;2023-04-15T05:15:20;7.80;99.90
43949;DHT22;29429;51.074;13.764;2023-04-15T05:17:50;8.00;99.90
43949;DHT22;29429;51.074;13.764;2023-04-15T05:20:17;7.90;99.90
43949;DHT22;29429;51.074;13.764;2023-04-15T05:22:44;8.00;99.90
43949;DHT22;29429;51.074;13.764;2023-04-15T05:25:12;8.00;99.90
43949;DHT22;29429;51.074;13.764;2023-04-15T05:27:41;8.00;99.90
43949;DHT22;29429;51.074;13.764;2023-04-15T05:30:08;8.00;99.90
43949;DHT22;29429;51.074;13.764;2023-04-15T05:32:38;8.10;99.90
43949;DHT22;29429;51.074;13.764;2023-04-15T05:35:06;8.10;99.90
43949;DHT22;29429;51.074;13.764;2023-04-15T05:37:34;8.10;99.90
43949;DHT22;29429;51.074;13.764;2023-04-15T05:40:01;8.90;99.90
43949;DHT22;29429;51.074;13.764;2023-04-15T05:42:28;8.40;99.90
43949;DHT22;29429;51.074;13.764;2023-04-15T05:44:56;8.10;99.90
43949;DHT22;29429;51.074;13.764;2023-04-15T05:47:23;8.10;99.90
43949;DHT22;29429;51.074;13.764;2023-04-15T05:49:50;8.50;99.90
43949;DHT22;29429;51.074;13.764;2023-04-15T05:52:17;8.20;99.90
43949;DHT22;29429;51.074;13.764;2023-04-15T05:54:44;8.20;99.90
43949;DHT22;29429;51.074;13.764;2023-04-15T05:57:12;8.50;99.90
43949;DHT22;29429;51.074;13.764;2023-04-15T05:59:39;8.20;99.90
43949;DHT22;29429;51.074;13.764;2023-04-15T06:02:09;8.20;99.90
43949;DHT22;29429;51.074;13.764;2023-04-15T06:04:36;8.30;99.90
43949;DHT22;29429;51.074;13.764;2023-04-15T06:07:03;8.50;99.90
43949;DHT22;29429;51.074;13.764;2023-04-15T06:09:31;8.30;99.90
43949;DHT22;29429;51.074;13.764;2023-04-15T06:11:58;8.80;99.90
43949;DHT22;29429;51.074;13.764;2023-04-15T06:14:27;8.30;99.90
43949;DHT22;29429;51.074;13.764;2023-04-15T06:16:55;8.40;99.90
43949;DHT22;29429;51.074;13.764;2023-04-15T06:19:26;8.40;99.90
43949;DHT22;29429;51.074;13.764;2023-04-15T06:21:57;8.50;99.90
43949;DHT22;29429;51.074;13.764;2023-04-15T06:24:27;8.40;99.90
43949;DHT22;29429;51.074;13.764;2023-04-15T06:26:56;8.40;99.90
43949;DHT22;29429;51.074;13.764;2023-04-15T06:29:40;8.40;99.90
43949;DHT22;29429;51.074;13.764;2023-04-15T06:32:23;8.50;99.90
43949;DHT22;29429;51.074;13.764;2023-04-15T06:35:04;8.50;99.90
43949;DHT22;29429;51.074;13.764;2023-04-15T06:37:42;8.50;99.90
43949;DHT22;29429;51.074;13.764;2023-04-15T06:40:18;8.60;99.90
43949;DHT22;29429;51.074;13.764;2023-04-15T06:42:58;8.60;99.90
43949;DHT22;29429;51.074;13.764;2023-04-15T06:45:33;8.70;99.90
43949;DHT22;29429;51.074;13.764;2023-04-15T06:48:07;8.70;99.90
43949;DHT22;29429;51.074;13.764;2023-04-15T06:50:53;8.80;99.90
43949;DHT22;29429;51.074;13.764;2023-04-15T07:20:42;8.80;99.90
43949;DHT22;29429;51.074;13.764;2023-04-15T07:24:57;9.30;99.90
43949;DHT22;29429;51.074;13.764;2023-04-15T07:27:35;9.20;99.90
43949;DHT22;29429;51.074;13.764;2023-04-15T07:30:16;9.80;99.90
43949;DHT22;29429;51.074;13.764;2023-04-15T07:33:02;9.40;99.90
43949;DHT22;29429;51.074;13.764;2023-04-15T07:35:50;9.40;99.90
43949;DHT22;29429;51.074;13.764;2023-04-15T07:43:11;9.40;99.90
43949;DHT22;29429;51.074;13.764;2023-04-15T08:09:48;9.10;99.90
43949;DHT22;29429;51.074;13.764;2023-04-15T08:13:52;10.40;99.90
43949;DHT22;29429;51.074;13.764;2023-04-15T08:18:19;10.50;99.90
43949;DHT22;29429;51.074;13.764;2023-04-15T08:20:46;10.60;99.90
43949;DHT22;29429;51.074;13.764;2023-04-15T08:23:13;10.60;99.90
43949;DHT22;29429;51.074;13.764;2023-04-15T08:25:40;10.70;99.90
43949;DHT22;29429;51.074;13.764;2023-04-15T08:28:07;10.80;99.90
43949;DHT22;29429;51.074;13.764;2023-04-15T08:30:35;10.90;99.90
43949;DHT22;29429;51.074;13.764;2023-04-15T08:33:02;11.00;99.90
43949;DHT22;29429;51.074;13.764;2023-04-15T08:35:29;11.10;99.90
43949;DHT22;29429;51.074;13.764;2023-04-15T08:37:59;11.10;99.90
43949;DHT22;29429;51.074;13.764;2023-04-15T08:40:35;11.30;99.90
43949;DHT22;29429;51.074;13.764;2023-04-15T08:43:26;11.30;99.90
43949;DHT22;29429;51.074;13.764;2023-04-15T08:45:56;11.40;99.90
43949;DHT22;29429;51.074;13.764;2023-04-15T08:48:28;11.50;99.90
43949;DHT22;29429;51.074;13.764;2023-04-15T08:50:58;11.50;99.90
43949;DHT22;29429;51.074;13.764;2023-04-15T08:53:28;11.50;99.90
43949;DHT22;29429;51.074;13.764;2023-04-15T08:55:59;11.60;99.90
43949;DHT22;29429;51.074;13.764;2023-04-15T08:58:35;11.40;99.90
43949;DHT22;29429;51.074;13.764;2023-04-15T09:01:02;11.30;99.90
43949;DHT22;29429;51.074;13.764;2023-04-15T09:03:32;11.20;99.90
43949;DHT22;29429;51.074;13.764;2023-04-15T09:06:03;11.00;99.90
43949;DHT22;29429;51.074;13.764;2023-04-15T09:08:32;10.80;99.90
43949;DHT22;29429;51.074;13.764;2023-04-15T09:11:03;10.70;99.90
43949;DHT22;29429;51.074;13.764;2023-04-15T09:13:31;10.60;99.90
43949;DHT22;29429;51.074;13.764;2023-04-15T09:16:04;10.50;99.90
43949;DHT22;29429;51.074;13.764;2023-04-15T09:18:37;10.50;99.90
43949;DHT22;29429;51.074;13.764;2023-04-15T09:21:14;10.60;99.90
43949;DHT22;29429;51.074;13.764;2023-04-15T09:29:06;10.50;99.90
43949;DHT22;29429;51.074;13.764;2023-04-15T09:31:36;10.50;99.90
43949;DHT22;29429;51.074;13.764;2023-04-15T09:34:04;10.50;99.90
43949;DHT22;29429;51.074;13.764;2023-04-15T09:39:18;10.50;99.90
43949;DHT22;29429;51.074;13.764;2023-04-15T09:41:46;10.40;99.90
43949;DHT22;29429;51.074;13.764;2023-04-15T09:44:23;10.40;99.90
43949;DHT22;29429;51.074;13.764;2023-04-15T09:46:52;10.30;99.90
43949;DHT22;29429;51.074;13.764;2023-04-15T09:49:19;10.20;99.90
43949;DHT22;29429;51.074;13.764;2023-04-15T09:51:46;10.20;99.90
43949;DHT22;29429;51.074;13.764;2023-04-15T09:54:37;10.00;99.90
43949;DHT22;29429;51.074;13.764;2023-04-15T09:57:08;10.00;99.90
43949;DHT22;29429;51.074;13.764;2023-04-15T09:59:38;9.90;99.90
43949;DHT22;29429;51.074;13.764;2023-04-15T10:02:15;9.90;99.90
43949;DHT22;29429;51.074;13.764;2023-04-15T10:04:59;9.90;99.90
43949;DHT22;29429;51.074;13.764;2023-04-15T10:07:30;10.00;99.90
43949;DHT22;29429;51.074;13.764;2023-04-15T10:10:08;10.00;99.90
43949;DHT22;29429;51.074;13.764;2023-04-15T10:12:51;10.00;99.90
43949;DHT22;29429;51.074;13.764;2023-04-15T10:15:26;9.70;99.90
43949;DHT22;29429;51.074;13.764;2023-04-15T10:18:07;10.00;99.90
43949;DHT22;29429;51.074;13.764;2023-04-15T10:21:10;9.90;99.90
43949;DHT22;29429;51.074;13.764;2023-04-15T10:23:49;10.00;99.90
43949;DHT22;29429;51.074;13.764;2023-04-15T10:26:18;10.10;99.90
43949;DHT22;29429;51.074;13.764;2023-04-15T10:28:46;10.20;99.90
43949;DHT22;29429;51.074;13.764;2023-04-15T10:31:14;10.20;99.90
43949;DHT22;29429;51.074;13.764;2023-04-15T10:33:46;10.20;99.90
43949;DHT22;29429;51.074;13.764;2023-04-15T10:36:18;10.20;99.90
43949;DHT22;29429;51.074;13.764;2023-04-15T10:38:46;10.30;99.90
43949;DHT22;29429;51.074;13.764;2023-04-15T10:41:38;10.20;99.90
43949;DHT22;29429;51.074;13.764;2023-04-15T10:45:00;10.30;99.90
43949;DHT22;29429;51.074;13.764;2023-04-15T10:47:43;10.30;99.90
43949;DHT22;29429;51.074;13.764;2023-04-15T10:52:10;10.30;99.90
43949;DHT22;29429;51.074;13.764;2023-04-15T10:56:27;10.40;99.90
43949;DHT22;29429;51.074;13.764;2023-04-15T10:59:17;10.60;99.90
43949;DHT22;29429;51.074;13.764;2023-04-15T11:02:06;10.70;99.90
43949;DHT22;29429;51.074;13.764;2023-04-15T11:11:17;11.10;99.90
43949;DHT22;29429;51.074;13.764;2023-04-15T11:13:58;11.20;99.90
43949;DHT22;29429;51.074;13.764;2023-04-15T11:16:27;11.30;99.90
43949;DHT22;29429;51.074;13.764;2023-04-15T11:19:04;11.40;99.90
43949;DHT22;29429;51.074;13.764;2023-04-15T11:21:40;11.20;99.90
43949;DHT22;29429;51.074;13.764;2023-04-15T11:24:07;11.20;99.90
43949;DHT22;29429;51.074;13.764;2023-04-15T11:26:35;11.30;99.90
43949;DHT22;29429;51.074;13.764;2023-04-15T11:29:03;11.40;99.90
43949;DHT22;29429;51.074;13.764;2023-04-15T11:31:31;11.50;99.90
43949;DHT22;29429;51.074;13.764;2023-04-15T11:33:59;11.50;99.90
43949;DHT22;29429;51.074;13.764;2023-04-15T11:36:30;11.60;99.90
43949;DHT22;29429;51.074;13.764;2023-04-15T11:38:58;11.60;99.90
43949;DHT22;29429;51.074;13.764;2023-04-15T11:41:26;11.60;99.90
43949;DHT22;29429;51.074;13.764;2023-04-15T11:43:53;11.70;99.90
43949;DHT22;29429;51.074;13.764;2023-04-15T11:46:20;11.70;99.90
43949;DHT22;29429;51.074;13.764;2023-04-15T11:48:54;11.80;99.90
43949;DHT22;29429;51.074;13.764;2023-04-15T11:51:23;11.80;99.90
43949;DHT22;29429;51.074;13.764;2023-04-15T11:53:57;11.90;99.90
43949;DHT22;29429;51.074;13.764;2023-04-15T11:56:38;12.00;99.90
43949;DHT22;29429;51.074;13.764;2023-04-15T11:59:43;12.00;99.90
43949;DHT22;29429;51.074;13.764;2023-04-15T12:02:12;12.00;99.90
43949;DHT22;29429;51.074;13.764;2023-04-15T12:04:40;12.00;99.90
43949;DHT22;29429;51.074;13.764;2023-04-15T12:07:08;12.00;99.90
43949;DHT22;29429;51.074;13.764;2023-04-15T12:19:09;12.00;99.90
43949;DHT22;29429;51.074;13.764;2023-04-15T12:28:37;11.90;99.90
43949;DHT22;29429;51.074;13.764;2023-04-15T12:32:48;12.10;99.90
43949;DHT22;29429;51.074;13.764;2023-04-15T12:37:45;12.30;99.90
43949;DHT22;29429;51.074;13.764;2023-04-15T12:43:47;12.40;99.90
43949;DHT22;29429;51.074;13.764;2023-04-15T12:51:05;12.30;99.90
43949;DHT22;29429;51.074;13.764;2023-04-15T12:53:36;12.10;99.90
43949;DHT22;29429;51.074;13.764;2023-04-15T12:56:30;12.20;99.90
43949;DHT22;29429;51.074;13.764;2023-04-15T12:59:00;12.10;99.90
43949;DHT22;29429;51.074;13.764;2023-04-15T13:01:32;12.10;99.90
43949;DHT22;29429;51.074;13.764;2023-04-15T13:04:26;12.30;99.90
43949;DHT22;29429;51.074;13.764;2023-04-15T13:07:16;12.30;99.90
43949;DHT22;29429;51.074;13.764;2023-04-15T13:09:43;12.30;99.90
43949;DHT22;29429;51.074;13.764;2023-04-15T13:12:19;12.30;99.90
43949;DHT22;29429;51.074;13.764;2023-04-15T13:15:47;12.30;99.90
43949;DHT22;29429;51.074;13.764;2023-04-15T13:18:17;12.40;99.90
43949;DHT22;29429;51.074;13.764;2023-04-15T13:20:45;12.40;99.90
43949;DHT22;29429;51.074;13.764;2023-04-15T13:23:12;12.40;99.90
43949;DHT22;29429;51.074;13.764;2023-04-15T13:25:56;12.50;99.90
43949;DHT22;29429;51.074;13.764;2023-04-15T13:28:24;12.50;99.90
43949;DHT22;29429;51.074;13.764;2023-04-15T13:30:52;12.50;99.90
43949;DHT22;29429;51.074;13.764;2023-04-15T13:33:19;12.60;99.90
43949;DHT22;29429;51.074;13.764;2023-04-15T13:35:46;12.80;99.90
43949;DHT22;29429;51.074;13.764;2023-04-15T13:38:13;13.00;99.90
43949;DHT22;29429;51.074;13.764;2023-04-15T13:40:40;13.30;99.90
43949;DHT22;29429;51.074;13.764;2023-04-15T13:43:07;13.50;99.90
43949;DHT22;29429;51.074;13.764;2023-04-15T13:45:34;13.70;99.90
43949;DHT22;29429;51.074;13.764;2023-04-15T13:48:02;14.00;99.90
43949;DHT22;29429;51.074;13.764;2023-04-15T13:50:29;14.10;99.90
43949;DHT22;29429;51.074;13.764;2023-04-15T13:58:07;14.50;99.90
43949;DHT22;29429;51.074;13.764;2023-04-15T14:06:53;14.60;99.90
43949;DHT22;29429;51.074;13.764;2023-04-15T14:13:58;14.30;99.90
43949;DHT22;29429;51.074;13.764;2023-04-15T14:36:01;14.40;99.90
43949;DHT22;29429;51.074;13.764;2023-04-15T14:38:35;14.30;99.90
43949;DHT22;29429;51.074;13.764;2023-04-15T14:45:59;14.20;99.90
43949;DHT22;29429;51.074;13.764;2023-04-15T14:53:49;14.10;99.90
43949;DHT22;29429;51.074;13.764;2023-04-15T14:56:16;14.00;99.90
43949;DHT22;29429;51.074;13.764;2023-04-15T14:58:43;14.00;99.90
43949;DHT22;29429;51.074;13.764;2023-04-15T15:01:10;13.90;99.90
43949;DHT22;29429;51.074;13.764;2023-04-15T15:03:38;13.80;99.90
43949;DHT22;29429;51.074;13.764;2023-04-15T15:06:05;13.80;99.90
43949;DHT22;29429;51.074;13.764;2023-04-15T15:08:32;13.80;99.90
43949;DHT22;29429;51.074;13.764;2023-04-15T15:10:59;13.80;99.90
43949;DHT22;29429;51.074;13.764;2023-04-15T15:13:26;13.80;99.90
43949;DHT22;29429;51.074;13.764;2023-04-15T15:15:54;13.80;99.90
43949;DHT22;29429;51.074;13.764;2023-04-15T15:18:22;13.70;99.90
43949;DHT22;29429;51.074;13.764;2023-04-15T15:20:51;13.70;99.90
43949;DHT22;29429;51.074;13.764;2023-04-15T15:23:18;13.70;99.90
43949;DHT22;29429;51.074;13.764;2023-04-15T15:25:45;13.70;99.90
43949;DHT22;29429;51.074;13.764;2023-04-15T15:28:13;13.70;99.90
43949;DHT22;29429;51.074;13.764;2023-04-15T15:30:40;13.80;99.90
43949;DHT22;29429;51.074;13.764;2023-04-15T15:33:07;13.80;99.90
43949;DHT22;29429;51.074;13.764;2023-04-15T15:35:38;13.80;99.90
43949;DHT22;29429;51.074;13.764;2023-04-15T15:38:05;13.70;99.90
43949;DHT22;29429;51.074;13.764;2023-04-15T15:40:33;13.70;99.90
43949;DHT22;29429;51.074;13.764;2023-04-15T15:42:59;13.70;99.90
43949;DHT22;29429;51.074;13.764;2023-04-15T15:45:27;13.70;99.90
43949;DHT22;29429;51.074;13.764;2023-04-15T15:48:06;13.60;99.90
43949;DHT22;29429;51.074;13.764;2023-04-15T15:50:33;13.40;99.90
43949;DHT22;29429;51.074;13.764;2023-04-15T15:53:01;13.30;99.90
43949;DHT22;29429;51.074;13.764;2023-04-15T15:55:28;13.30;99.90
43949;DHT22;29429;51.074;13.764;2023-04-15T15:57:55;13.20;99.90
43949;DHT22;29429;51.074;13.764;2023-04-15T16:00:23;13.20;99.90
43949;DHT22;29429;51.074;13.764;2023-04-15T16:02:56;13.00;99.90
43949;DHT22;29429;51.074;13.764;2023-04-15T16:05:26;12.90;99.90
43949;DHT22;29429;51.074;13.764;2023-04-15T16:07:53;12.80;99.90
43949;DHT22;29429;51.074;13.764;2023-04-15T16:10:20;12.70;99.90
43949;DHT22;29429;51.074;13.764;2023-04-15T16:12:47;12.60;99.90
43949;DHT22;29429;51.074;13.764;2023-04-15T16:15:14;12.40;99.90
43949;DHT22;29429;51.074;13.764;2023-04-15T16:17:41;12.40;99.90
43949;DHT22;29429;51.074;13.764;2023-04-15T16:20:08;12.40;99.90
43949;DHT22;29429;51.074;13.764;2023-04-15T16:22:36;12.30;99.90
43949;DHT22;29429;51.074;13.764;2023-04-15T16:25:03;12.30;99.90
43949;DHT22;29429;51.074;13.764;2023-04-15T16:27:30;12.30;99.90
43949;DHT22;29429;51.074;13.764;2023-04-15T16:30:00;12.30;99.90
43949;DHT22;29429;51.074;13.764;2023-04-15T16:32:27;12.20;99.90
43949;DHT22;29429;51.074;13.764;2023-04-15T16:34:54;12.30;99.90
43949;DHT22;29429;51.074;13.764;2023-04-15T16:37:21;12.30;99.90
43949;DHT22;29429;51.074;13.764;2023-04-15T16:39:48;12.30;99.90
43949;DHT22;29429;51.074;13.764;2023-04-15T16:42:15;12.20;99.90
43949;DHT22;29429;51.074;13.764;2023-04-15T16:44:42;12.10;99.90
43949;DHT22;29429;51.074;13.764;2023-04-15T16:47:09;12.00;99.90
43949;DHT22;29429;51.074;13.764;2023-04-15T16:49:37;11.90;99.90
43949;DHT22;29429;51.074;13.764;2023-04-15T16:52:04;11.80;99.90
43949;DHT22;29429;51.074;13.764;2023-04-15T16:54:31;11.70;99.90
43949;DHT22;29429;51.074;13.764;2023-04-15T16:57:00;11.60;99.90
43949;DHT22;29429;51.074;13.764;2023-04-15T16:59:28;11.60;99.90
43949;DHT22;29429;51.074;13.764;2023-04-15T17:01:55;11.70;99.90
43949;DHT22;29429;51.074;13.764;2023-04-15T17:04:22;11.50;99.90
43949;DHT22;29429;51.074;13.764;2023-04-15T17:06:49;11.50;99.90
43949;DHT22;29429;51.074;13.764;2023-04-15T17:09:16;11.40;99.90
43949;DHT22;29429;51.074;13.764;2023-04-15T17:11:43;11.40;99.90
43949;DHT22;29429;51.074;13.764;2023-04-15T17:14:11;11.40;99.90
43949;DHT22;29429;51.074;13.764;2023-04-15T17:16:38;11.30;99.90
43949;DHT22;29429;51.074;13.764;2023-04-15T17:22:22;11.20;99.90
43949;DHT22;29429;51.074;13.764;2023-04-15T17:24:49;11.20;99.90
43949;DHT22;29429;51.074;13.764;2023-04-15T17:27:16;11.10;99.90
43949;DHT22;29429;51.074;13.764;2023-04-15T17:29:43;11.10;99.90
43949;DHT22;29429;51.074;13.764;2023-04-15T17:32:10;11.00;99.90
43949;DHT22;29429;51.074;13.764;2023-04-15T17:34:37;11.00;99.90
43949;DHT22;29429;51.074;13.764;2023-04-15T17:37:16;10.90;99.90
43949;DHT22;29429;51.074;13.764;2023-04-15T17:39:44;11.10;99.90
43949;DHT22;29429;51.074;13.764;2023-04-15T17:42:12;10.80;99.90
43949;DHT22;29429;51.074;13.764;2023-04-15T17:44:39;10.80;99.90
43949;DHT22;29429;51.074;13.764;2023-04-15T17:47:06;10.70;99.90
43949;DHT22;29429;51.074;13.764;2023-04-15T17:49:33;10.70;99.90
43949;DHT22;29429;51.074;13.764;2023-04-15T17:52:03;10.60;99.90
43949;DHT22;29429;51.074;13.764;2023-04-15T17:54:30;10.60;99.90
43949;DHT22;29429;51.074;13.764;2023-04-15T17:56:57;10.50;99.90
43949;DHT22;29429;51.074;13.764;2023-04-15T17:59:25;10.50;99.90
43949;DHT22;29429;51.074;13.764;2023-04-15T18:01:53;10.50;99.90
43949;DHT22;29429;51.074;13.764;2023-04-15T18:04:20;10.40;99.90
43949;DHT22;29429;51.074;13.764;2023-04-15T18:06:52;10.40;99.90
43949;DHT22;29429;51.074;13.764;2023-04-15T18:09:19;10.30;99.90
43949;DHT22;29429;51.074;13.764;2023-04-15T18:11:46;10.30;99.90
43949;DHT22;29429;51.074;13.764;2023-04-15T18:14:14;10.30;99.90
43949;DHT22;29429;51.074;13.764;2023-04-15T18:16:59;10.20;99.90
43949;DHT22;29429;51.074;13.764;2023-04-15T18:19:26;10.20;99.90
43949;DHT22;29429;51.074;13.764;2023-04-15T18:21:53;10.20;99.90
43949;DHT22;29429;51.074;13.764;2023-04-15T18:24:21;10.10;99.90
43949;DHT22;29429;51.074;13.764;2023-04-15T18:26:48;10.10;99.90
43949;DHT22;29429;51.074;13.764;2023-04-15T18:29:15;10.10;99.90
43949;DHT22;29429;51.074;13.764;2023-04-15T18:31:42;10.00;99.90
43949;DHT22;29429;51.074;13.764;2023-04-15T18:34:09;10.00;99.90
43949;DHT22;29429;51.074;13.764;2023-04-15T18:36:36;10.00;99.90
43949;DHT22;29429;51.074;13.764;2023-04-15T18:39:04;9.80;99.90